sensor_id;sensor_type;location;lat;lon;timestamp;P1;durP1;ratioP1;P2;durP2;ratioP2
68168;SDS011;54981;50.206;15.978;2023-08-07T00:00:32;4.28;;;4.03;;
68168;SDS011;54981;50.206;15.978;2023-08-07T00:03:02;4.10;;;3.80;;
68168;SDS011;54981;50.206;15.978;2023-08-07T00:05:33;3.60;;;3.40;;
68168;SDS011;54981;50.206;15.978;2023-08-07T00:08:03;4.07;;;3.88;;
68168;SDS011;54981;50.206;15.978;2023-08-07T00:10:34;4.07;;;3.80;;
68168;SDS011;54981;50.206;15.978;2023-08-07T00:13:04;4.45;;;4.15;;
68168;SDS011;54981;50.206;15.978;2023-08-07T00:15:37;6.18;;;4.35;;
68168;SDS011;54981;50.206;15.978;2023-08-07T00:18:07;4.50;;;4.30;;
68168;SDS011;54981;50.206;15.978;2023-08-07T00:20:38;3.85;;;3.65;;
68168;SDS011;54981;50.206;15.978;2023-08-07T00:23:08;4.88;;;4.57;;
68168;SDS011;54981;50.206;15.978;2023-08-07T00:25:38;4.35;;;3.90;;
68168;SDS011;54981;50.206;15.978;2023-08-07T00:28:11;5.20;;;4.50;;
68168;SDS011;54981;50.206;15.978;2023-08-07T00:30:42;4.90;;;4.60;;
68168;SDS011;54981;50.206;15.978;2023-08-07T00:33:12;5.88;;;3.95;;
68168;SDS011;54981;50.206;15.978;2023-08-07T00:35:43;5.25;;;4.80;;
68168;SDS011;54981;50.206;15.978;2023-08-07T00:38:14;4.85;;;4.55;;
68168;SDS011;54981;50.206;15.978;2023-08-07T00:40:44;4.13;;;3.78;;
68168;SDS011;54981;50.206;15.978;2023-08-07T00:43:14;4.00;;;3.75;;
68168;SDS011;54981;50.206;15.978;2023-08-07T00:45:45;3.35;;;3.15;;
68168;SDS011;54981;50.206;15.978;2023-08-07T00:48:17;4.35;;;4.05;;
68168;SDS011;54981;50.206;15.978;2023-08-07T00:50:47;4.70;;;4.50;;
68168;SDS011;54981;50.206;15.978;2023-08-07T00:53:18;4.93;;;4.63;;
68168;SDS011;54981;50.206;15.978;2023-08-07T00:55:49;3.90;;;3.70;;
68168;SDS011;54981;50.206;15.978;2023-08-07T00:58:19;4.55;;;4.35;;
68168;SDS011;54981;50.206;15.978;2023-08-07T01:00:50;4.78;;;4.50;;
68168;SDS011;54981;50.206;15.978;2023-08-07T01:03:20;5.40;;;4.90;;
68168;SDS011;54981;50.206;15.978;2023-08-07T01:05:51;4.70;;;4.40;;
68168;SDS011;54981;50.206;15.978;2023-08-07T01:08:21;4.35;;;4.05;;
68168;SDS011;54981;50.206;15.978;2023-08-07T01:13:47;4.13;;;3.88;;
68168;SDS011;54981;50.206;15.978;2023-08-07T01:19:28;4.53;;;4.20;;
68168;SDS011;54981;50.206;15.978;2023-08-07T01:24:36;4.60;;;4.32;;
68168;SDS011;54981;50.206;15.978;2023-08-07T01:27:15;5.47;;;5.07;;
68168;SDS011;54981;50.206;15.978;2023-08-07T01:33:03;4.55;;;4.35;;
68168;SDS011;54981;50.206;15.978;2023-08-07T01:35:41;4.43;;;4.13;;
68168;SDS011;54981;50.206;15.978;2023-08-07T01:38:13;4.82;;;4.53;;
68168;SDS011;54981;50.206;15.978;2023-08-07T01:40:44;4.82;;;4.63;;
68168;SDS011;54981;50.206;15.978;2023-08-07T01:43:16;5.03;;;4.72;;
68168;SDS011;54981;50.206;15.978;2023-08-07T01:45:48;4.53;;;4.20;;
68168;SDS011;54981;50.206;15.978;2023-08-07T01:48:19;4.10;;;3.90;;
68168;SDS011;54981;50.206;15.978;2023-08-07T01:50:49;4.45;;;4.18;;
68168;SDS011;54981;50.206;15.978;2023-08-07T01:53:19;4.20;;;3.97;;
68168;SDS011;54981;50.206;15.978;2023-08-07T01:55:50;5.22;;;4.80;;
68168;SDS011;54981;50.206;15.978;2023-08-07T01:58:20;4.95;;;4.72;;
68168;SDS011;54981;50.206;15.978;2023-08-07T02:00:51;5.32;;;5.03;;
68168;SDS011;54981;50.206;15.978;2023-08-07T02:03:21;5.00;;;4.53;;
68168;SDS011;54981;50.206;15.978;2023-08-07T02:05:51;4.93;;;4.68;;
68168;SDS011;54981;50.206;15.978;2023-08-07T02:08:22;4.53;;;4.22;;
68168;SDS011;54981;50.206;15.978;2023-08-07T02:10:52;4.82;;;4.43;;
68168;SDS011;54981;50.206;15.978;2023-08-07T02:13:22;4.75;;;4.45;;
68168;SDS011;54981;50.206;15.978;2023-08-07T02:15:53;4.65;;;4.35;;
68168;SDS011;54981;50.206;15.978;2023-08-07T02:18:23;5.72;;;5.32;;
68168;SDS011;54981;50.206;15.978;2023-08-07T02:20:53;4.45;;;4.15;;
68168;SDS011;54981;50.206;15.978;2023-08-07T02:23:24;5.18;;;4.85;;
68168;SDS011;54981;50.206;15.978;2023-08-07T02:25:54;4.53;;;4.20;;
68168;SDS011;54981;50.206;15.978;2023-08-07T02:28:25;5.35;;;4.95;;
68168;SDS011;54981;50.206;15.978;2023-08-07T02:30:55;5.32;;;4.90;;
68168;SDS011;54981;50.206;15.978;2023-08-07T02:33:25;5.20;;;4.80;;
68168;SDS011;54981;50.206;15.978;2023-08-07T02:35:56;4.53;;;4.22;;
68168;SDS011;54981;50.206;15.978;2023-08-07T02:38:26;4.85;;;4.45;;
68168;SDS011;54981;50.206;15.978;2023-08-07T02:40:57;4.18;;;3.88;;
68168;SDS011;54981;50.206;15.978;2023-08-07T02:43:27;4.47;;;4.28;;
68168;SDS011;54981;50.206;15.978;2023-08-07T02:45:58;4.75;;;4.32;;
68168;SDS011;54981;50.206;15.978;2023-08-07T02:48:29;5.18;;;4.78;;
68168;SDS011;54981;50.206;15.978;2023-08-07T02:50:59;4.90;;;4.53;;
68168;SDS011;54981;50.206;15.978;2023-08-07T02:53:29;5.43;;;5.03;;
68168;SDS011;54981;50.206;15.978;2023-08-07T02:56:00;4.75;;;4.43;;
68168;SDS011;54981;50.206;15.978;2023-08-07T02:58:30;4.15;;;3.95;;
68168;SDS011;54981;50.206;15.978;2023-08-07T03:01:04;4.10;;;3.85;;
68168;SDS011;54981;50.206;15.978;2023-08-07T03:03:38;4.20;;;4.00;;
68168;SDS011;54981;50.206;15.978;2023-08-07T03:06:08;5.18;;;4.88;;
68168;SDS011;54981;50.206;15.978;2023-08-07T03:08:38;4.22;;;3.92;;
68168;SDS011;54981;50.206;15.978;2023-08-07T03:11:09;3.95;;;3.72;;
68168;SDS011;54981;50.206;15.978;2023-08-07T03:13:39;4.93;;;4.63;;
68168;SDS011;54981;50.206;15.978;2023-08-07T03:16:09;4.60;;;4.40;;
68168;SDS011;54981;50.206;15.978;2023-08-07T03:18:40;5.03;;;4.68;;
68168;SDS011;54981;50.206;15.978;2023-08-07T03:21:10;4.95;;;4.65;;
68168;SDS011;54981;50.206;15.978;2023-08-07T03:23:40;4.65;;;4.35;;
68168;SDS011;54981;50.206;15.978;2023-08-07T03:26:12;4.82;;;4.57;;
68168;SDS011;54981;50.206;15.978;2023-08-07T03:28:42;4.13;;;3.92;;
68168;SDS011;54981;50.206;15.978;2023-08-07T03:31:16;4.55;;;4.22;;
68168;SDS011;54981;50.206;15.978;2023-08-07T03:33:46;5.15;;;4.85;;
68168;SDS011;54981;50.206;15.978;2023-08-07T03:36:17;4.70;;;4.30;;
68168;SDS011;54981;50.206;15.978;2023-08-07T03:38:47;4.65;;;4.45;;
68168;SDS011;54981;50.206;15.978;2023-08-07T03:41:18;4.43;;;4.13;;
68168;SDS011;54981;50.206;15.978;2023-08-07T03:43:48;4.55;;;4.25;;
68168;SDS011;54981;50.206;15.978;2023-08-07T03:46:19;5.07;;;4.70;;
68168;SDS011;54981;50.206;15.978;2023-08-07T03:48:49;4.97;;;4.63;;
68168;SDS011;54981;50.206;15.978;2023-08-07T03:51:20;3.88;;;3.63;;
68168;SDS011;54981;50.206;15.978;2023-08-07T03:53:50;5.60;;;5.10;;
68168;SDS011;54981;50.206;15.978;2023-08-07T03:56:20;4.88;;;4.68;;
68168;SDS011;54981;50.206;15.978;2023-08-07T03:58:51;4.22;;;3.95;;
68168;SDS011;54981;50.206;15.978;2023-08-07T04:01:21;5.10;;;4.70;;
68168;SDS011;54981;50.206;15.978;2023-08-07T04:03:52;4.68;;;4.32;;
68168;SDS011;54981;50.206;15.978;2023-08-07T04:06:22;4.80;;;4.60;;
68168;SDS011;54981;50.206;15.978;2023-08-07T04:08:52;4.18;;;3.97;;
68168;SDS011;54981;50.206;15.978;2023-08-07T04:11:23;4.72;;;4.45;;
68168;SDS011;54981;50.206;15.978;2023-08-07T04:13:53;5.28;;;4.95;;
68168;SDS011;54981;50.206;15.978;2023-08-07T04:16:24;5.18;;;4.82;;
68168;SDS011;54981;50.206;15.978;2023-08-07T04:18:54;5.03;;;4.55;;
68168;SDS011;54981;50.206;15.978;2023-08-07T04:21:24;4.90;;;4.60;;
68168;SDS011;54981;50.206;15.978;2023-08-07T04:23:55;4.47;;;4.28;;
68168;SDS011;54981;50.206;15.978;2023-08-07T04:26:26;4.82;;;4.43;;
68168;SDS011;54981;50.206;15.978;2023-08-07T04:28:57;5.00;;;4.70;;
68168;SDS011;54981;50.206;15.978;2023-08-07T04:31:27;4.25;;;4.05;;
68168;SDS011;54981;50.206;15.978;2023-08-07T04:33:57;5.35;;;4.82;;
68168;SDS011;54981;50.206;15.978;2023-08-07T04:36:28;5.30;;;5.00;;
68168;SDS011;54981;50.206;15.978;2023-08-07T04:38:58;5.50;;;5.10;;
68168;SDS011;54981;50.206;15.978;2023-08-07T04:41:29;4.82;;;4.53;;
68168;SDS011;54981;50.206;15.978;2023-08-07T04:43:59;5.28;;;4.97;;
68168;SDS011;54981;50.206;15.978;2023-08-07T04:46:29;5.85;;;5.35;;
68168;SDS011;54981;50.206;15.978;2023-08-07T04:49:00;4.53;;;4.30;;
68168;SDS011;54981;50.206;15.978;2023-08-07T04:51:31;4.93;;;4.50;;
68168;SDS011;54981;50.206;15.978;2023-08-07T04:54:01;5.45;;;5.15;;
68168;SDS011;54981;50.206;15.978;2023-08-07T04:56:31;5.22;;;4.82;;
68168;SDS011;54981;50.206;15.978;2023-08-07T04:59:02;5.35;;;5.05;;
68168;SDS011;54981;50.206;15.978;2023-08-07T05:01:32;4.78;;;4.47;;
68168;SDS011;54981;50.206;15.978;2023-08-07T05:04:03;5.40;;;5.10;;
68168;SDS011;54981;50.206;15.978;2023-08-07T05:06:35;5.82;;;5.50;;
68168;SDS011;54981;50.206;15.978;2023-08-07T05:09:05;4.93;;;4.53;;
68168;SDS011;54981;50.206;15.978;2023-08-07T05:11:36;5.93;;;5.53;;
68168;SDS011;54981;50.206;15.978;2023-08-07T05:14:07;6.05;;;5.65;;
68168;SDS011;54981;50.206;15.978;2023-08-07T05:16:37;6.32;;;5.82;;
68168;SDS011;54981;50.206;15.978;2023-08-07T05:19:07;6.00;;;5.65;;
68168;SDS011;54981;50.206;15.978;2023-08-07T05:21:38;6.43;;;6.00;;
68168;SDS011;54981;50.206;15.978;2023-08-07T05:24:08;5.95;;;5.45;;
68168;SDS011;54981;50.206;15.978;2023-08-07T05:26:39;6.50;;;6.10;;
68168;SDS011;54981;50.206;15.978;2023-08-07T05:29:09;6.05;;;5.75;;
68168;SDS011;54981;50.206;15.978;2023-08-07T05:31:39;6.43;;;5.95;;
68168;SDS011;54981;50.206;15.978;2023-08-07T05:34:10;5.85;;;5.40;;
68168;SDS011;54981;50.206;15.978;2023-08-07T05:36:40;6.00;;;5.60;;
68168;SDS011;54981;50.206;15.978;2023-08-07T05:39:11;5.70;;;5.40;;
68168;SDS011;54981;50.206;15.978;2023-08-07T05:41:41;5.93;;;5.63;;
68168;SDS011;54981;50.206;15.978;2023-08-07T05:44:12;6.45;;;5.95;;
68168;SDS011;54981;50.206;15.978;2023-08-07T05:46:42;5.55;;;5.15;;
68168;SDS011;54981;50.206;15.978;2023-08-07T05:49:13;6.35;;;5.93;;
68168;SDS011;54981;50.206;15.978;2023-08-07T05:51:43;5.78;;;5.47;;
68168;SDS011;54981;50.206;15.978;2023-08-07T05:54:13;5.50;;;5.20;;
68168;SDS011;54981;50.206;15.978;2023-08-07T05:56:44;5.97;;;5.40;;
68168;SDS011;54981;50.206;15.978;2023-08-07T05:59:14;5.93;;;5.63;;
68168;SDS011;54981;50.206;15.978;2023-08-07T06:01:45;5.53;;;5.22;;
68168;SDS011;54981;50.206;15.978;2023-08-07T06:04:15;5.95;;;5.60;;
68168;SDS011;54981;50.206;15.978;2023-08-07T06:06:46;5.35;;;5.05;;
68168;SDS011;54981;50.206;15.978;2023-08-07T06:09:16;6.30;;;5.88;;
68168;SDS011;54981;50.206;15.978;2023-08-07T06:11:47;6.03;;;5.63;;
68168;SDS011;54981;50.206;15.978;2023-08-07T06:14:18;6.15;;;5.75;;
68168;SDS011;54981;50.206;15.978;2023-08-07T06:16:48;5.30;;;5.00;;
68168;SDS011;54981;50.206;15.978;2023-08-07T06:19:19;5.80;;;5.45;;
68168;SDS011;54981;50.206;15.978;2023-08-07T06:21:50;5.07;;;4.78;;
68168;SDS011;54981;50.206;15.978;2023-08-07T06:24:20;6.35;;;5.95;;
68168;SDS011;54981;50.206;15.978;2023-08-07T06:26:51;5.15;;;4.85;;
68168;SDS011;54981;50.206;15.978;2023-08-07T06:29:21;6.75;;;6.25;;
68168;SDS011;54981;50.206;15.978;2023-08-07T06:31:52;5.05;;;4.75;;
68168;SDS011;54981;50.206;15.978;2023-08-07T06:34:22;6.07;;;5.68;;
68168;SDS011;54981;50.206;15.978;2023-08-07T06:36:52;6.28;;;5.88;;
68168;SDS011;54981;50.206;15.978;2023-08-07T06:39:23;6.05;;;5.50;;
68168;SDS011;54981;50.206;15.978;2023-08-07T06:41:53;5.75;;;5.35;;
68168;SDS011;54981;50.206;15.978;2023-08-07T06:44:24;5.80;;;5.40;;
68168;SDS011;54981;50.206;15.978;2023-08-07T06:46:54;5.75;;;5.35;;
68168;SDS011;54981;50.206;15.978;2023-08-07T06:49:24;5.95;;;5.45;;
68168;SDS011;54981;50.206;15.978;2023-08-07T06:51:55;6.20;;;5.80;;
68168;SDS011;54981;50.206;15.978;2023-08-07T06:54:25;6.28;;;5.72;;
68168;SDS011;54981;50.206;15.978;2023-08-07T06:56:55;6.00;;;5.50;;
68168;SDS011;54981;50.206;15.978;2023-08-07T06:59:26;5.57;;;5.07;;
68168;SDS011;54981;50.206;15.978;2023-08-07T07:01:56;6.43;;;5.93;;
68168;SDS011;54981;50.206;15.978;2023-08-07T07:04:26;5.18;;;4.88;;
68168;SDS011;54981;50.206;15.978;2023-08-07T07:06:58;6.45;;;5.95;;
68168;SDS011;54981;50.206;15.978;2023-08-07T07:09:28;6.80;;;6.38;;
68168;SDS011;54981;50.206;15.978;2023-08-07T07:11:59;6.50;;;6.05;;
68168;SDS011;54981;50.206;15.978;2023-08-07T07:14:29;6.05;;;5.65;;
68168;SDS011;54981;50.206;15.978;2023-08-07T07:16:59;6.22;;;5.82;;
68168;SDS011;54981;50.206;15.978;2023-08-07T07:19:30;6.75;;;6.32;;
68168;SDS011;54981;50.206;15.978;2023-08-07T07:22:00;7.07;;;6.47;;
68168;SDS011;54981;50.206;15.978;2023-08-07T07:24:31;6.70;;;6.13;;
68168;SDS011;54981;50.206;15.978;2023-08-07T07:27:01;7.65;;;7.05;;
68168;SDS011;54981;50.206;15.978;2023-08-07T07:29:32;7.18;;;6.68;;
68168;SDS011;54981;50.206;15.978;2023-08-07T07:32:03;6.85;;;6.43;;
68168;SDS011;54981;50.206;15.978;2023-08-07T07:34:34;7.72;;;7.03;;
68168;SDS011;54981;50.206;15.978;2023-08-07T07:37:04;7.43;;;6.90;;
68168;SDS011;54981;50.206;15.978;2023-08-07T07:39:34;7.80;;;7.22;;
68168;SDS011;54981;50.206;15.978;2023-08-07T07:42:05;8.38;;;7.75;;
68168;SDS011;54981;50.206;15.978;2023-08-07T07:44:37;7.32;;;6.72;;
68168;SDS011;54981;50.206;15.978;2023-08-07T07:47:08;8.82;;;8.23;;
68168;SDS011;54981;50.206;15.978;2023-08-07T07:49:39;8.13;;;7.38;;
68168;SDS011;54981;50.206;15.978;2023-08-07T07:52:09;7.65;;;6.97;;
68168;SDS011;54981;50.206;15.978;2023-08-07T07:54:40;7.53;;;6.90;;
68168;SDS011;54981;50.206;15.978;2023-08-07T07:57:10;7.85;;;7.13;;
68168;SDS011;54981;50.206;15.978;2023-08-07T07:59:40;7.57;;;7.07;;
68168;SDS011;54981;50.206;15.978;2023-08-07T08:02:11;7.10;;;6.60;;
68168;SDS011;54981;50.206;15.978;2023-08-07T08:04:41;6.65;;;6.15;;
68168;SDS011;54981;50.206;15.978;2023-08-07T08:07:12;6.80;;;6.30;;
68168;SDS011;54981;50.206;15.978;2023-08-07T08:09:42;7.35;;;6.75;;
68168;SDS011;54981;50.206;15.978;2023-08-07T08:12:13;8.73;;;7.03;;
68168;SDS011;54981;50.206;15.978;2023-08-07T08:14:43;8.15;;;7.35;;
68168;SDS011;54981;50.206;15.978;2023-08-07T08:17:13;7.45;;;6.85;;
68168;SDS011;54981;50.206;15.978;2023-08-07T08:19:44;7.80;;;6.60;;
68168;SDS011;54981;50.206;15.978;2023-08-07T08:22:14;7.20;;;6.63;;
68168;SDS011;54981;50.206;15.978;2023-08-07T08:24:44;6.90;;;6.15;;
68168;SDS011;54981;50.206;15.978;2023-08-07T08:27:15;7.03;;;6.53;;
68168;SDS011;54981;50.206;15.978;2023-08-07T08:29:47;7.55;;;7.00;;
68168;SDS011;54981;50.206;15.978;2023-08-07T08:32:17;6.10;;;5.45;;
68168;SDS011;54981;50.206;15.978;2023-08-07T08:34:47;7.05;;;6.35;;
68168;SDS011;54981;50.206;15.978;2023-08-07T08:37:20;7.57;;;6.97;;
68168;SDS011;54981;50.206;15.978;2023-08-07T08:39:50;7.00;;;6.32;;
68168;SDS011;54981;50.206;15.978;2023-08-07T08:42:20;7.35;;;6.65;;
68168;SDS011;54981;50.206;15.978;2023-08-07T08:44:51;6.22;;;5.70;;
68168;SDS011;54981;50.206;15.978;2023-08-07T08:47:24;6.10;;;5.55;;
68168;SDS011;54981;50.206;15.978;2023-08-07T08:50:29;6.73;;;6.10;;
68168;SDS011;54981;50.206;15.978;2023-08-07T08:52:53;8.52;;;7.43;;
68168;SDS011;54981;50.206;15.978;2023-08-07T08:55:26;8.27;;;7.47;;
68168;SDS011;54981;50.206;15.978;2023-08-07T08:57:56;7.68;;;6.93;;
68168;SDS011;54981;50.206;15.978;2023-08-07T09:03:01;8.10;;;7.30;;
68168;SDS011;54981;50.206;15.978;2023-08-07T09:05:32;8.35;;;7.60;;
68168;SDS011;54981;50.206;15.978;2023-08-07T09:08:04;9.10;;;8.07;;
68168;SDS011;54981;50.206;15.978;2023-08-07T09:10:35;9.23;;;8.32;;
68168;SDS011;54981;50.206;15.978;2023-08-07T09:13:08;8.80;;;8.00;;
68168;SDS011;54981;50.206;15.978;2023-08-07T09:15:44;8.82;;;8.00;;
68168;SDS011;54981;50.206;15.978;2023-08-07T09:18:20;8.73;;;7.80;;
68168;SDS011;54981;50.206;15.978;2023-08-07T09:20:51;8.05;;;7.35;;
68168;SDS011;54981;50.206;15.978;2023-08-07T09:23:22;9.02;;;8.13;;
68168;SDS011;54981;50.206;15.978;2023-08-07T09:26:00;8.68;;;7.82;;
68168;SDS011;54981;50.206;15.978;2023-08-07T09:28:32;8.57;;;7.75;;
68168;SDS011;54981;50.206;15.978;2023-08-07T09:31:05;9.00;;;8.07;;
68168;SDS011;54981;50.206;15.978;2023-08-07T09:33:36;9.70;;;8.70;;
68168;SDS011;54981;50.206;15.978;2023-08-07T09:36:09;8.55;;;7.75;;
68168;SDS011;54981;50.206;15.978;2023-08-07T09:38:39;8.82;;;7.50;;
68168;SDS011;54981;50.206;15.978;2023-08-07T09:41:09;9.05;;;7.95;;
68168;SDS011;54981;50.206;15.978;2023-08-07T09:43:40;9.15;;;7.95;;
68168;SDS011;54981;50.206;15.978;2023-08-07T09:46:10;8.05;;;7.28;;
68168;SDS011;54981;50.206;15.978;2023-08-07T09:48:42;11.00;;;7.78;;
68168;SDS011;54981;50.206;15.978;2023-08-07T09:51:13;7.90;;;7.00;;
68168;SDS011;54981;50.206;15.978;2023-08-07T09:53:43;9.10;;;7.60;;
68168;SDS011;54981;50.206;15.978;2023-08-07T09:56:14;7.72;;;6.88;;
68168;SDS011;54981;50.206;15.978;2023-08-07T09:58:47;7.65;;;6.97;;
68168;SDS011;54981;50.206;15.978;2023-08-07T10:01:19;7.57;;;6.88;;
68168;SDS011;54981;50.206;15.978;2023-08-07T10:03:49;8.80;;;6.82;;
68168;SDS011;54981;50.206;15.978;2023-08-07T10:06:20;8.30;;;7.35;;
68168;SDS011;54981;50.206;15.978;2023-08-07T10:08:50;7.18;;;6.43;;
68168;SDS011;54981;50.206;15.978;2023-08-07T10:11:21;7.95;;;7.25;;
68168;SDS011;54981;50.206;15.978;2023-08-07T10:13:53;6.95;;;6.25;;
68168;SDS011;54981;50.206;15.978;2023-08-07T10:16:25;6.72;;;6.22;;
68168;SDS011;54981;50.206;15.978;2023-08-07T10:18:58;6.53;;;5.87;;
68168;SDS011;54981;50.206;15.978;2023-08-07T10:21:28;9.25;;;6.88;;
68168;SDS011;54981;50.206;15.978;2023-08-07T10:23:58;6.70;;;5.70;;
68168;SDS011;54981;50.206;15.978;2023-08-07T10:26:32;6.25;;;5.63;;
68168;SDS011;54981;50.206;15.978;2023-08-07T10:29:05;6.60;;;6.00;;
68168;SDS011;54981;50.206;15.978;2023-08-07T10:31:40;6.30;;;5.53;;
68168;SDS011;54981;50.206;15.978;2023-08-07T10:34:12;6.55;;;5.97;;
68168;SDS011;54981;50.206;15.978;2023-08-07T10:36:43;6.22;;;5.07;;
68168;SDS011;54981;50.206;15.978;2023-08-07T10:39:15;6.03;;;5.45;;
68168;SDS011;54981;50.206;15.978;2023-08-07T10:41:46;5.60;;;5.15;;
68168;SDS011;54981;50.206;15.978;2023-08-07T10:44:24;6.80;;;6.30;;
68168;SDS011;54981;50.206;15.978;2023-08-07T10:46:56;13.20;;;5.65;;
68168;SDS011;54981;50.206;15.978;2023-08-07T10:54:41;8.30;;;6.22;;
68168;SDS011;54981;50.206;15.978;2023-08-07T10:57:17;7.05;;;5.70;;
68168;SDS011;54981;50.206;15.978;2023-08-07T11:02:30;8.85;;;6.95;;
68168;SDS011;54981;50.206;15.978;2023-08-07T11:05:01;6.75;;;6.15;;
68168;SDS011;54981;50.206;15.978;2023-08-07T11:07:32;6.57;;;5.97;;
68168;SDS011;54981;50.206;15.978;2023-08-07T11:10:02;6.60;;;5.93;;
68168;SDS011;54981;50.206;15.978;2023-08-07T11:12:32;6.22;;;5.72;;
68168;SDS011;54981;50.206;15.978;2023-08-07T11:15:03;6.72;;;6.22;;
68168;SDS011;54981;50.206;15.978;2023-08-07T11:17:38;6.53;;;5.93;;
68168;SDS011;54981;50.206;15.978;2023-08-07T11:20:11;6.97;;;6.13;;
68168;SDS011;54981;50.206;15.978;2023-08-07T11:22:41;5.95;;;5.35;;
68168;SDS011;54981;50.206;15.978;2023-08-07T11:25:12;7.15;;;5.63;;
68168;SDS011;54981;50.206;15.978;2023-08-07T11:27:45;6.93;;;6.32;;
68168;SDS011;54981;50.206;15.978;2023-08-07T11:30:15;6.15;;;5.65;;
68168;SDS011;54981;50.206;15.978;2023-08-07T11:32:46;5.85;;;5.35;;
68168;SDS011;54981;50.206;15.978;2023-08-07T11:35:16;7.10;;;5.40;;
68168;SDS011;54981;50.206;15.978;2023-08-07T11:37:47;6.05;;;5.55;;
68168;SDS011;54981;50.206;15.978;2023-08-07T11:40:17;5.90;;;5.20;;
68168;SDS011;54981;50.206;15.978;2023-08-07T11:42:48;7.78;;;5.70;;
68168;SDS011;54981;50.206;15.978;2023-08-07T11:45:18;7.35;;;5.75;;
68168;SDS011;54981;50.206;15.978;2023-08-07T11:47:49;5.85;;;5.35;;
68168;SDS011;54981;50.206;15.978;2023-08-07T11:50:19;4.80;;;4.45;;
68168;SDS011;54981;50.206;15.978;2023-08-07T11:52:50;5.72;;;5.22;;
68168;SDS011;54981;50.206;15.978;2023-08-07T11:55:21;5.63;;;5.13;;
68168;SDS011;54981;50.206;15.978;2023-08-07T11:57:53;6.15;;;5.55;;
68168;SDS011;54981;50.206;15.978;2023-08-07T12:00:27;6.28;;;5.68;;
68168;SDS011;54981;50.206;15.978;2023-08-07T12:02:59;7.45;;;6.35;;
68168;SDS011;54981;50.206;15.978;2023-08-07T12:05:37;10.27;;;5.45;;
68168;SDS011;54981;50.206;15.978;2023-08-07T12:08:09;5.90;;;5.30;;
68168;SDS011;54981;50.206;15.978;2023-08-07T12:10:40;6.45;;;5.88;;
68168;SDS011;54981;50.206;15.978;2023-08-07T12:13:12;6.88;;;6.28;;
68168;SDS011;54981;50.206;15.978;2023-08-07T12:15:42;7.25;;;6.55;;
68168;SDS011;54981;50.206;15.978;2023-08-07T12:18:13;7.53;;;6.93;;
68168;SDS011;54981;50.206;15.978;2023-08-07T12:20:45;7.88;;;6.07;;
68168;SDS011;54981;50.206;15.978;2023-08-07T12:23:15;8.48;;;6.00;;
68168;SDS011;54981;50.206;15.978;2023-08-07T12:25:46;6.63;;;6.03;;
68168;SDS011;54981;50.206;15.978;2023-08-07T12:28:18;6.53;;;5.95;;
68168;SDS011;54981;50.206;15.978;2023-08-07T12:30:49;5.70;;;5.20;;
68168;SDS011;54981;50.206;15.978;2023-08-07T12:33:21;6.15;;;5.13;;
68168;SDS011;54981;50.206;15.978;2023-08-07T12:35:52;5.80;;;5.30;;
68168;SDS011;54981;50.206;15.978;2023-08-07T12:38:23;4.85;;;4.45;;
68168;SDS011;54981;50.206;15.978;2023-08-07T12:40:54;4.80;;;4.38;;
68168;SDS011;54981;50.206;15.978;2023-08-07T12:43:25;4.93;;;4.53;;
68168;SDS011;54981;50.206;15.978;2023-08-07T12:45:55;8.98;;;4.43;;
68168;SDS011;54981;50.206;15.978;2023-08-07T12:48:26;5.07;;;4.25;;
68168;SDS011;54981;50.206;15.978;2023-08-07T12:50:58;4.85;;;4.35;;
68168;SDS011;54981;50.206;15.978;2023-08-07T12:53:28;4.80;;;4.40;;
68168;SDS011;54981;50.206;15.978;2023-08-07T12:55:59;4.28;;;3.90;;
68168;SDS011;54981;50.206;15.978;2023-08-07T12:58:29;4.70;;;3.22;;
68168;SDS011;54981;50.206;15.978;2023-08-07T13:01:00;4.78;;;4.38;;
68168;SDS011;54981;50.206;15.978;2023-08-07T13:03:30;4.45;;;3.65;;
68168;SDS011;54981;50.206;15.978;2023-08-07T13:06:00;4.85;;;3.63;;
68168;SDS011;54981;50.206;15.978;2023-08-07T13:08:31;4.05;;;3.75;;
68168;SDS011;54981;50.206;15.978;2023-08-07T13:11:03;4.22;;;3.90;;
68168;SDS011;54981;50.206;15.978;2023-08-07T13:13:34;4.70;;;4.32;;
68168;SDS011;54981;50.206;15.978;2023-08-07T13:16:04;4.47;;;4.13;;
68168;SDS011;54981;50.206;15.978;2023-08-07T13:18:34;3.85;;;3.03;;
68168;SDS011;54981;50.206;15.978;2023-08-07T13:21:05;3.45;;;3.15;;
68168;SDS011;54981;50.206;15.978;2023-08-07T13:23:35;3.10;;;2.90;;
68168;SDS011;54981;50.206;15.978;2023-08-07T13:26:06;2.97;;;2.78;;
68168;SDS011;54981;50.206;15.978;2023-08-07T13:28:36;3.33;;;3.03;;
68168;SDS011;54981;50.206;15.978;2023-08-07T13:31:06;3.25;;;3.05;;
68168;SDS011;54981;50.206;15.978;2023-08-07T13:33:37;4.63;;;2.70;;
68168;SDS011;54981;50.206;15.978;2023-08-07T13:36:07;4.35;;;2.88;;
68168;SDS011;54981;50.206;15.978;2023-08-07T13:38:38;4.45;;;2.72;;
68168;SDS011;54981;50.206;15.978;2023-08-07T13:41:08;3.30;;;3.10;;
68168;SDS011;54981;50.206;15.978;2023-08-07T13:43:38;3.20;;;3.00;;
68168;SDS011;54981;50.206;15.978;2023-08-07T13:46:09;3.38;;;3.17;;
68168;SDS011;54981;50.206;15.978;2023-08-07T13:48:39;3.30;;;3.03;;
68168;SDS011;54981;50.206;15.978;2023-08-07T13:51:10;3.33;;;3.05;;
68168;SDS011;54981;50.206;15.978;2023-08-07T13:53:41;4.55;;;3.10;;
68168;SDS011;54981;50.206;15.978;2023-08-07T13:56:11;3.50;;;3.25;;
68168;SDS011;54981;50.206;15.978;2023-08-07T13:58:45;3.83;;;3.42;;
68168;SDS011;54981;50.206;15.978;2023-08-07T14:01:15;3.30;;;2.60;;
68168;SDS011;54981;50.206;15.978;2023-08-07T14:03:46;2.88;;;2.67;;
68168;SDS011;54981;50.206;15.978;2023-08-07T14:06:16;3.50;;;3.20;;
68168;SDS011;54981;50.206;15.978;2023-08-07T14:08:46;3.83;;;3.53;;
68168;SDS011;54981;50.206;15.978;2023-08-07T14:11:17;5.45;;;3.70;;
68168;SDS011;54981;50.206;15.978;2023-08-07T14:13:47;3.50;;;3.28;;
68168;SDS011;54981;50.206;15.978;2023-08-07T14:16:17;3.72;;;3.45;;
68168;SDS011;54981;50.206;15.978;2023-08-07T14:18:48;3.70;;;3.50;;
68168;SDS011;54981;50.206;15.978;2023-08-07T14:21:18;3.40;;;3.20;;
68168;SDS011;54981;50.206;15.978;2023-08-07T14:23:50;3.70;;;3.45;;
68168;SDS011;54981;50.206;15.978;2023-08-07T14:26:21;4.13;;;3.83;;
68168;SDS011;54981;50.206;15.978;2023-08-07T14:28:51;7.32;;;3.95;;
68168;SDS011;54981;50.206;15.978;2023-08-07T14:31:21;6.63;;;5.53;;
68168;SDS011;54981;50.206;15.978;2023-08-07T14:33:52;4.40;;;4.05;;
68168;SDS011;54981;50.206;15.978;2023-08-07T14:36:22;4.60;;;4.20;;
68168;SDS011;54981;50.206;15.978;2023-08-07T14:38:52;4.78;;;4.43;;
68168;SDS011;54981;50.206;15.978;2023-08-07T14:41:23;4.40;;;3.90;;
68168;SDS011;54981;50.206;15.978;2023-08-07T14:43:53;5.10;;;4.70;;
68168;SDS011;54981;50.206;15.978;2023-08-07T14:46:23;4.70;;;4.40;;
68168;SDS011;54981;50.206;15.978;2023-08-07T14:48:54;5.40;;;5.00;;
68168;SDS011;54981;50.206;15.978;2023-08-07T14:51:24;4.50;;;4.13;;
68168;SDS011;54981;50.206;15.978;2023-08-07T14:53:56;4.63;;;4.22;;
68168;SDS011;54981;50.206;15.978;2023-08-07T14:56:27;4.72;;;4.32;;
68168;SDS011;54981;50.206;15.978;2023-08-07T14:58:58;7.68;;;5.55;;
68168;SDS011;54981;50.206;15.978;2023-08-07T15:01:28;7.43;;;5.45;;
68168;SDS011;54981;50.206;15.978;2023-08-07T15:03:58;5.00;;;4.50;;
68168;SDS011;54981;50.206;15.978;2023-08-07T15:06:29;5.18;;;4.80;;
68168;SDS011;54981;50.206;15.978;2023-08-07T15:08:59;4.70;;;4.05;;
68168;SDS011;54981;50.206;15.978;2023-08-07T15:11:29;5.35;;;4.88;;
68168;SDS011;54981;50.206;15.978;2023-08-07T15:14:00;6.00;;;5.50;;
68168;SDS011;54981;50.206;15.978;2023-08-07T15:16:31;6.10;;;5.68;;